Lexington, KY (40575)

5:00 AM EDT on June 03, 2015 (GMT -0400)
Garden Meadows | | Change Station
CLOSE
Current Station
Personal Weather Station
Location: Lexington, KY
Elevation: 965 ft
Nearby Weather Stations

Elev 965 ft 38.10 °N, 84.53 °W | Updated 51 seconds ago

Overcast
Overcast
57.4 °F
Feels Like 57.4 °F
N
0.0
Wind Variable Wind from SSW
Gusts 2.7 mph

Today
High -- | Low -- °F
--% Chance of Precip.
Yesterday
High -- | Low -- °F
Precip. -- in
6:16 AM 8:56 PM
Waxing Gibbous, 99% visible
Pressure 30.04 in
Visibility 6.0 miles
Clouds Overcast 1400 ft
Dew Point 55 °F
Humidity 91%
Rainfall 0.00 in
Snow Depth Not available.
UV 0 out of 12
Pollen 6.80 out of 12
Air Quality Not available.
Flu Activity No Activity
METAR KLEX 030854Z 06005KT 6SM BR OVC014 14/13 A3005 RMK AO2 SLP173 T01440128 56009 $

More Conditions Fewer Conditions

Pressure 30.04 in
Visibility 6.0 miles
Clouds Overcast 1400 ft
Dew Point 55 °F
Humidity 91%
Rainfall 0.00 in
Snow Depth Not available.
UV 0 out of 12
Pollen 6.80 out of 12
Air Quality Not available.
Flu Activity No Activity
METAR KLEX 030854Z 06005KT 6SM BR OVC014 14/13 A3005 RMK AO2 SLP173 T01440128 56009 $

More Conditions Fewer Conditions

10-Day Weather Forecast

×

Almanac

Astronomy

Jun. 03, 2015 Rise Set
Actual Time
Civil Twilight
Nautical Twilight
Astronomical Twilight
Moon
Length of Visible Light
Length of Day
Tomorrow will be .
, % of the Moon is Illuminated

Today's Extremes

State Highs State Lows

Community

WunderPhotos

Upload Photos

1,826,194 photos uploaded!

WunderBlogs® & News

Nearby

Air Quality

  Air Quality AQ Index Pollutant
Not available.

Snow Depth

Station Depth Elevation

Earthquake Activity

City Distance Mag. Time & Date
Minimum magnitude displayed is 2.5.

Coastal Water Temperatures

Place Temperature

Stations

Nearby Weather Stations

Station Location Temp. Windchill Dew Point Humidity Wind Precip. Elev Updated Type